TimeCDT,TemperatureF,Dew PointF,Humidity,Sea Level PressureIn,VisibilityMPH,Wind Direction,Wind SpeedMPH,Gust SpeedMPH,PrecipitationIn,Events,Conditions,WindDirDegrees,DateUTC
12:58 AM,52.0,48.0,86,30.22,10.0,Calm,Calm,-,N/A,,Clear,0,2013-05-14 05:58:00
1:58 AM,52.0,46.9,83,30.22,10.0,Calm,Calm,-,N/A,,Clear,0,2013-05-14 06:58:00
2:58 AM,50.0,46.0,86,30.22,10.0,Calm,Calm,-,N/A,,Clear,0,2013-05-14 07:58:00
3:58 AM,50.0,46.0,86,30.23,10.0,Calm,Calm,-,N/A,,Clear,0,2013-05-14 08:58:00
4:58 AM,50.0,46.0,86,30.24,10.0,Calm,Calm,-,N/A,,Clear,0,2013-05-14 09:58:00
5:58 AM,50.0,46.0,86,30.26,10.0,Calm,Calm,-,N/A,,Clear,0,2013-05-14 10:58:00
6:58 AM,55.0,50.0,83,30.27,10.0,Calm,Calm,-,N/A,,Clear,0,2013-05-14 11:58:00
7:58 AM,64.9,53.1,65,30.29,10.0,Calm,Calm,-,N/A,,Clear,0,2013-05-14 12:58:00
8:58 AM,71.1,48.0,44,30.29,10.0,South,4.6,-,N/A,,Clear,180,2013-05-14 13:58:00
9:58 AM,73.9,46.0,37,30.30,10.0,Variable,3.5,-,N/A,,Clear,0,2013-05-14 14:58:00
10:58 AM,75.9,48.0,37,30.30,10.0,Variable,3.5,-,N/A,,Clear,0,2013-05-14 15:58:00
11:58 AM,78.1,48.0,35,30.29,10.0,South,6.9,-,N/A,,Clear,170,2013-05-14 16:58:00
12:58 PM,82.0,48.0,30,30.26,10.0,Variable,3.5,-,N/A,,Clear,0,2013-05-14 17:58:00
1:58 PM,82.0,48.0,30,30.23,10.0,Variable,4.6,-,N/A,,Clear,0,2013-05-14 18:58:00
2:58 PM,82.9,48.9,31,30.21,10.0,Variable,5.8,-,N/A,,Clear,0,2013-05-14 19:58:00
3:58 PM,82.9,48.0,29,30.19,10.0,North,4.6,-,N/A,,Clear,350,2013-05-14 20:58:00
4:58 PM,84.0,48.9,29,30.17,10.0,Variable,3.5,-,N/A,,Clear,0,2013-05-14 21:58:00
5:58 PM,82.9,50.0,32,30.17,10.0,Calm,Calm,-,N/A,,Clear,0,2013-05-14 22:58:00
6:58 PM,77.0,53.1,43,30.17,10.0,Calm,Calm,-,N/A,,Clear,0,2013-05-14 23:58:00
7:58 PM,72.0,53.1,51,30.18,10.0,SSW,5.8,-,N/A,,Clear,210,2013-05-15 00:58:00
8:58 PM,69.1,53.1,57,30.19,10.0,SW,3.5,-,N/A,,Clear,220,2013-05-15 01:58:00
9:58 PM,66.9,53.1,61,30.21,10.0,SW,4.6,-,N/A,,Clear,220,2013-05-15 02:58:00
10:58 PM,64.9,53.1,65,30.21,10.0,Calm,Calm,-,N/A,,Clear,0,2013-05-15 03:58:00
11:58 PM,63.0,54.0,72,30.20,10.0,SW,3.5,-,N/A,,Clear,230,2013-05-15 04:58:00